3II9 weather

Dick's Strip
Arcola, Indiana, United States

Public forecast

Using degrees Fahrenheit for public forecast. Weather courtesy of forecast.io.

METAR (pilot weather report)

Closest report is Fort Wayne International Airport, 7.4 nm (13.8 km) SSE. Retrieved 2019/04/22 04:54 UTC (1 hour ago):

KFWA 220454Z 14006KT 10SM SCT140 SCT230 12/08 A3016 RMK AO2 SLP212 T01170083 401890017

TAF (pilot weather forecast)

Forecast is more than 12 hours old.

Closest forecast is Fort Wayne International Airport, 7.4 nm (13.8 km) SSE. Retrieved 2019/04/21 00:22 UTC (1 day ago):

TAF KFWA 212320Z 2200/2224 14005KT P6SM FEW250 TEMPO 2210/2213 5SM BR FM221500 18013KT P6SM BKN150